Time;durP1;ratioP1;P1;durP2;ratioP2;P2;SDS_P1;SDS_P2;PMS_P1;PMS_P2;Temp;Humidity;BMP_temperature;BMP_pressure;BME280_temperature;BME280_humidity;BME280_pressure;Samples;Min_cycle;Max_cycle;Signal;HPM_P1;HPM_P2
2023/04/06 00:01:53;;;;;;;73.30;52.53;;;15.10;61.30;;;;;;5019097;27;85175;-51
2023/04/06 00:04:18;;;;;;;72.82;52.42;;;15.10;61.40;;;;;;5019782;27;85096;-58
2023/04/06 00:06:44;;;;;;;74.47;51.75;;;15.10;61.40;;;;;;5020072;27;84692;-55
2023/04/06 00:09:10;;;;;;;72.28;52.15;;;15.10;61.50;;;;;;5019347;27;85154;-56
2023/04/06 00:11:35;;;;;;;71.78;52.13;;;15.00;61.40;;;;;;5019639;27;84766;-49
2023/04/06 00:14:01;;;;;;;72.40;52.13;;;15.10;61.50;;;;;;5019914;27;84813;-58
2023/04/06 00:16:27;;;;;;;72.20;51.83;;;15.00;61.40;;;;;;5017416;27;84535;-58
2023/04/06 00:18:52;;;;;;;73.45;52.42;;;15.00;61.60;;;;;;5012076;27;85074;-55
2023/04/06 00:21:18;;;;;;;72.38;52.38;;;14.90;61.50;;;;;;5016455;27;84675;-55
2023/04/06 00:23:44;;;;;;;72.47;52.28;;;14.90;61.50;;;;;;5021077;27;84200;-57
2023/04/06 00:26:10;;;;;;;73.18;51.95;;;14.90;61.60;;;;;;5019416;27;84649;-57
2023/04/06 00:28:37;;;;;;;72.30;52.40;;;15.00;61.70;;;;;;5015859;27;85310;-58
2023/04/06 00:31:03;;;;;;;71.90;52.05;;;15.00;61.60;;;;;;5012259;27;84796;-57
2023/04/06 00:33:28;;;;;;;73.32;52.28;;;14.90;61.70;;;;;;5023495;27;84603;-56
2023/04/06 00:35:54;;;;;;;72.53;52.28;;;15.00;61.40;;;;;;5011916;27;84872;-58
2023/04/06 00:38:20;;;;;;;71.72;51.63;;;15.00;61.60;;;;;;5011646;27;85747;-55
2023/04/06 00:40:46;;;;;;;73.38;52.20;;;15.00;61.50;;;;;;5017437;27;85807;-58
2023/04/06 00:43:12;;;;;;;71.82;51.58;;;14.90;61.60;;;;;;5014552;27;84689;-55
2023/04/06 00:45:41;;;;;;;73.82;52.65;;;14.90;61.50;;;;;;5019301;27;84671;-59
2023/04/06 00:48:08;;;;;;;72.00;51.95;;;14.90;61.50;;;;;;5014753;27;86394;-58
2023/04/06 00:50:34;;;;;;;74.13;52.63;;;14.90;61.60;;;;;;5015315;27;84750;-57
2023/04/06 00:53:00;;;;;;;72.60;51.92;;;14.90;61.50;;;;;;5017820;27;84844;-58
2023/04/06 00:55:27;;;;;;;72.15;51.80;;;15.00;61.30;;;;;;5016404;27;86848;-58
2023/04/06 00:57:53;;;;;;;72.90;51.67;;;14.90;61.50;;;;;;5005822;27;86303;-55
2023/04/06 01:00:19;;;;;;;72.93;52.38;;;14.90;61.50;;;;;;5016411;27;84645;-55
2023/04/06 01:02:46;;;;;;;71.05;51.80;;;14.80;61.60;;;;;;5017495;27;85026;-59
2023/04/06 01:05:11;;;;;;;72.07;51.97;;;14.90;61.60;;;;;;5015981;27;85752;-58
2023/04/06 01:07:37;;;;;;;72.20;51.65;;;14.90;61.40;;;;;;5017434;27;84752;-58
2023/04/06 01:10:04;;;;;;;72.78;52.30;;;14.90;61.50;;;;;;5011281;27;86163;-58
2023/04/06 01:12:29;;;;;;;71.32;51.80;;;14.90;61.40;;;;;;5023061;27;84695;-58
2023/04/06 01:14:55;;;;;;;74.88;52.30;;;14.90;61.50;;;;;;5015761;27;84583;-59
2023/04/06 01:17:21;;;;;;;72.72;52.08;;;14.80;61.50;;;;;;5016853;27;85262;-58
2023/04/06 01:19:49;;;;;;;73.00;51.95;;;14.80;61.50;;;;;;5010920;27;86985;-53
2023/04/06 01:22:18;;;;;;;74.35;52.83;;;14.80;61.30;;;;;;5013493;27;84423;-57
2023/04/06 01:24:44;;;;;;;72.30;51.88;;;14.90;61.40;;;;;;5014951;27;84881;-50
2023/04/06 01:27:10;;;;;;;72.38;52.42;;;14.80;61.20;;;;;;5014956;27;84700;-58
2023/04/06 01:29:36;;;;;;;73.70;52.63;;;14.80;61.40;;;;;;5019641;27;84706;-55
2023/04/06 01:32:02;;;;;;;71.95;52.03;;;14.80;61.40;;;;;;5019135;27;87100;-58
2023/04/06 01:34:28;;;;;;;74.35;52.60;;;14.80;61.40;;;;;;5018024;27;88427;-57
2023/04/06 01:36:54;;;;;;;71.82;51.80;;;14.80;61.40;;;;;;5016548;27;84918;-50
2023/04/06 01:39:20;;;;;;;73.75;52.15;;;14.80;61.50;;;;;;5018239;27;88779;-59
2023/04/06 01:41:49;;;;;;;71.93;51.80;;;14.80;61.40;;;;;;5018387;27;87254;-58
2023/04/06 01:44:18;;;;;;;74.40;52.25;;;14.80;61.40;;;;;;5014534;27;86721;-58
2023/04/06 01:46:45;;;;;;;74.03;52.85;;;14.80;61.40;;;;;;5018108;27;84829;-58
2023/04/06 01:49:11;;;;;;;72.93;51.78;;;14.80;61.40;;;;;;5018066;27;84382;-58
2023/04/06 01:51:37;;;;;;;72.93;52.50;;;14.80;61.30;;;;;;5021703;27;84845;-59
2023/04/06 01:54:03;;;;;;;71.68;52.00;;;14.80;61.30;;;;;;5018940;27;85658;-58
2023/04/06 01:56:28;;;;;;;73.80;52.70;;;14.80;61.30;;;;;;5023241;27;84697;-54
2023/04/06 01:58:54;;;;;;;73.13;52.85;;;14.70;61.30;;;;;;5015359;27;84701;-58
2023/04/06 02:01:20;;;;;;;72.88;52.35;;;14.70;61.30;;;;;;5014805;27;85435;-57
2023/04/06 02:03:46;;;;;;;72.82;52.25;;;14.70;61.30;;;;;;5021856;27;85036;-55
2023/04/06 02:06:11;;;;;;;73.88;52.75;;;14.70;61.30;;;;;;5021534;27;86435;-54
2023/04/06 02:08:37;;;;;;;72.75;52.83;;;14.70;61.30;;;;;;5014948;27;84966;-58
2023/04/06 02:11:03;;;;;;;73.53;52.65;;;14.70;61.40;;;;;;5020766;27;86862;-58
2023/04/06 02:13:28;;;;;;;72.97;52.47;;;14.70;61.30;;;;;;5014103;27;86378;-57
2023/04/06 02:15:54;;;;;;;72.78;52.97;;;14.70;61.30;;;;;;5018933;27;84901;-57
2023/04/06 02:18:20;;;;;;;73.80;52.65;;;14.70;62.10;;;;;;5019277;27;85386;-56
2023/04/06 02:20:46;;;;;;;72.10;52.42;;;14.70;61.30;;;;;;5017237;27;88987;-58
2023/04/06 02:23:11;;;;;;;75.35;52.67;;;14.70;61.30;;;;;;5018706;27;85708;-56
2023/04/06 02:25:37;;;;;;;73.82;52.08;;;14.70;61.20;;;;;;5016949;27;84916;-57
2023/04/06 02:28:03;;;;;;;72.82;52.13;;;14.70;61.30;;;;;;5017739;27;84542;-58
2023/04/06 02:30:29;;;;;;;72.35;52.33;;;14.60;61.20;;;;;;5014235;27;87064;-55
2023/04/06 02:32:55;;;;;;;72.25;52.35;;;14.70;61.30;;;;;;5016864;27;85406;-57
2023/04/06 02:35:21;;;;;;;71.93;52.15;;;14.70;61.30;;;;;;5014898;27;84734;-57
2023/04/06 02:37:46;;;;;;;72.38;52.35;;;14.60;61.40;;;;;;5018487;27;85274;-59
2023/04/06 02:40:13;;;;;;;73.72;52.72;;;14.70;61.40;;;;;;5015624;27;85614;-58
2023/04/06 02:42:39;;;;;;;72.75;52.28;;;14.70;61.20;;;;;;5016212;27;85893;-56
2023/04/06 02:45:05;;;;;;;72.05;52.35;;;14.60;61.30;;;;;;5017744;27;85109;-53
2023/04/06 02:47:31;;;;;;;73.55;52.58;;;14.60;61.20;;;;;;5016708;27;85108;-58
2023/04/06 02:49:56;;;;;;;74.05;52.28;;;14.60;61.10;;;;;;5011965;27;85469;-54
2023/04/06 02:52:22;;;;;;;72.20;51.70;;;14.60;61.30;;;;;;5020041;27;85331;-57
2023/04/06 02:54:48;;;;;;;73.35;53.15;;;14.60;61.20;;;;;;5016004;27;84695;-53
2023/04/06 02:57:13;;;;;;;72.53;52.17;;;14.60;61.10;;;;;;5015094;27;84895;-53
2023/04/06 02:59:39;;;;;;;71.80;52.05;;;14.60;61.20;;;;;;5012090;27;85138;-52
2023/04/06 03:02:04;;;;;;;74.55;52.45;;;14.60;61.20;;;;;;5019396;27;86702;-54
2023/04/06 03:04:30;;;;;;;73.00;52.40;;;14.50;61.20;;;;;;5018728;27;84962;-58
2023/04/06 03:06:56;;;;;;;73.18;52.28;;;14.60;61.20;;;;;;5020160;27;85669;-58
2023/04/06 03:09:21;;;;;;;71.90;51.45;;;14.60;61.20;;;;;;5015576;27;86777;-58
2023/04/06 03:11:47;;;;;;;72.05;52.17;;;14.60;61.30;;;;;;5018330;27;85266;-52
2023/04/06 03:14:13;;;;;;;71.97;51.97;;;14.60;61.30;;;;;;5016379;27;84675;-57
2023/04/06 03:16:39;;;;;;;72.15;52.50;;;14.50;61.20;;;;;;5013102;27;87022;-47
2023/04/06 03:19:04;;;;;;;72.40;52.20;;;14.50;61.30;;;;;;5016239;27;84995;-52
2023/04/06 03:21:30;;;;;;;74.15;52.30;;;14.50;61.40;;;;;;5011119;27;87420;-57
2023/04/06 03:23:56;;;;;;;71.63;51.88;;;14.60;61.30;;;;;;5017914;27;84770;-56
2023/04/06 03:26:22;;;;;;;72.40;52.75;;;14.60;61.30;;;;;;5012690;27;86002;-54
2023/04/06 03:28:47;;;;;;;72.70;51.90;;;14.60;61.20;;;;;;5016787;27;86019;-54
2023/04/06 03:31:13;;;;;;;72.57;52.78;;;14.50;61.20;;;;;;5008997;27;85213;-58
2023/04/06 03:33:39;;;;;;;73.47;52.00;;;14.60;61.30;;;;;;5015210;27;85127;-58
2023/04/06 03:36:06;;;;;;;72.78;52.10;;;14.60;61.30;;;;;;5013074;27;84625;-57
2023/04/06 03:38:32;;;;;;;72.72;52.58;;;14.50;61.30;;;;;;5020490;27;85521;-58
2023/04/06 03:40:57;;;;;;;72.15;52.47;;;14.40;61.40;;;;;;5013759;27;86306;-49
2023/04/06 03:43:23;;;;;;;72.65;52.13;;;14.40;61.50;;;;;;5011455;27;85850;-58
2023/04/06 03:45:49;;;;;;;72.10;52.42;;;14.50;61.50;;;;;;5017181;27;87953;-58
2023/04/06 03:48:15;;;;;;;71.93;52.15;;;14.40;61.30;;;;;;5018582;27;86257;-59
2023/04/06 03:50:40;;;;;;;70.65;51.83;;;14.50;61.40;;;;;;5008776;27;84979;-55
2023/04/06 03:53:06;;;;;;;71.05;51.90;;;14.50;61.30;;;;;;5015845;27;85294;-58
2023/04/06 03:55:32;;;;;;;71.95;52.50;;;14.50;61.30;;;;;;5011719;27;84901;-57
2023/04/06 03:57:57;;;;;;;72.13;52.53;;;14.40;61.20;;;;;;5014751;27;86873;-58
2023/04/06 04:00:24;;;;;;;72.25;52.45;;;14.50;61.40;;;;;;5015572;27;84959;-59
2023/04/06 04:02:50;;;;;;;72.30;52.38;;;14.40;61.30;;;;;;5013879;27;84988;-56
2023/04/06 04:05:16;;;;;;;72.47;51.83;;;14.40;61.40;;;;;;5009909;27;84495;-59
2023/04/06 04:07:41;;;;;;;71.95;52.55;;;14.40;61.40;;;;;;4997468;27;84775;-55
2023/04/06 04:10:08;;;;;;;73.88;52.45;;;14.40;61.30;;;;;;5010762;27;86783;-50
2023/04/06 04:12:33;;;;;;;72.78;51.85;;;14.40;61.40;;;;;;5014489;27;85619;-55
2023/04/06 04:14:59;;;;;;;72.40;52.10;;;14.40;61.30;;;;;;5012387;27;86068;-58
2023/04/06 04:17:25;;;;;;;72.40;52.17;;;14.40;61.30;;;;;;5011060;27;85721;-58
2023/04/06 04:19:50;;;;;;;71.75;51.65;;;14.40;61.30;;;;;;5017916;27;85710;-58
2023/04/06 04:22:16;;;;;;;71.88;52.15;;;14.40;61.30;;;;;;5017564;27;85264;-59
2023/04/06 04:24:42;;;;;;;74.05;52.63;;;14.40;61.40;;;;;;5023333;27;87996;-58
2023/04/06 04:27:07;;;;;;;71.43;51.72;;;14.40;61.40;;;;;;5013548;27;88547;-55
2023/04/06 04:29:33;;;;;;;72.45;51.95;;;14.40;61.40;;;;;;5018411;27;86030;-56
2023/04/06 04:31:59;;;;;;;71.45;51.17;;;14.40;61.50;;;;;;5008775;27;85666;-58
2023/04/06 05:02:46;;;;;;;72.50;51.88;;;14.30;61.40;;;;;;4978387;28;85693;-57
2023/04/06 05:05:11;;;;;;;71.68;51.58;;;14.30;61.50;;;;;;4971872;28;85037;-57
2023/04/06 05:07:37;;;;;;;71.47;51.35;;;14.30;61.40;;;;;;4987569;28;84947;-55
2023/04/06 05:10:03;;;;;;;70.80;51.42;;;14.30;61.60;;;;;;4990384;28;88375;-58
2023/04/06 05:12:29;;;;;;;69.47;51.10;;;14.30;61.70;;;;;;4999555;28;85086;-54
2023/04/06 05:14:54;;;;;;;71.65;51.47;;;14.30;61.70;;;;;;4994546;28;85823;-51
2023/04/06 05:17:20;;;;;;;71.85;52.03;;;14.30;62.40;;;;;;4998558;28;84757;-57
2023/04/06 05:19:46;;;;;;;71.30;51.90;;;14.30;61.70;;;;;;4997372;28;84801;-57
2023/04/06 05:22:14;;;;;;;75.07;51.95;;;14.30;61.90;;;;;;4987905;28;87153;-55
2023/04/06 05:24:40;;;;;;;70.78;51.10;;;14.40;62.20;;;;;;4993881;28;84275;-59
2023/04/06 05:27:05;;;;;;;72.05;51.50;;;14.30;62.30;;;;;;5002401;28;85756;-56
2023/04/06 05:29:31;;;;;;;71.28;51.88;;;14.30;62.50;;;;;;4990045;28;85359;-58
2023/04/06 05:31:57;;;;;;;72.53;51.33;;;14.30;62.60;;;;;;5002612;28;86413;-57
2023/04/06 05:34:22;;;;;;;72.20;51.50;;;14.30;62.70;;;;;;4991544;28;87412;-59
2023/04/06 05:36:48;;;;;;;73.30;51.97;;;14.30;62.70;;;;;;5005041;28;85380;-51
2023/04/06 05:39:14;;;;;;;71.60;51.97;;;14.40;63.00;;;;;;4988357;28;85157;-53
2023/04/06 05:41:39;;;;;;;72.13;51.08;;;14.30;63.00;;;;;;4983519;28;90781;-59
2023/04/06 05:44:05;;;;;;;72.40;51.63;;;14.30;63.30;;;;;;4997079;28;84307;-59
2023/04/06 05:46:31;;;;;;;71.53;51.10;;;14.30;63.10;;;;;;4997074;28;84620;-59
2023/04/06 05:48:56;;;;;;;71.55;51.08;;;14.30;63.00;;;;;;5000793;28;84981;-59
2023/04/06 05:51:22;;;;;;;72.93;51.78;;;14.30;62.90;;;;;;4997233;28;84607;-59
2023/04/06 05:53:48;;;;;;;73.85;51.63;;;14.30;62.80;;;;;;4997811;28;84661;-59
2023/04/06 05:56:13;;;;;;;72.20;51.40;;;14.30;62.80;;;;;;4998585;28;84282;-60
2023/04/06 05:58:39;;;;;;;75.93;51.30;;;14.30;63.00;;;;;;5001021;28;85984;-59
2023/04/06 06:01:05;;;;;;;71.38;51.65;;;14.30;63.40;;;;;;4994148;28;84799;-58
2023/04/06 06:03:31;;;;;;;78.65;52.13;;;14.30;63.40;;;;;;5000565;28;90129;-59
2023/04/06 06:06:04;;;;;;;72.97;51.22;;;14.30;63.60;;;;;;4996238;28;87317;-58
2023/04/06 06:08:30;;;;;;;74.20;51.58;;;14.30;63.40;;;;;;5000813;28;85439;-59
2023/04/06 06:10:56;;;;;;;72.68;51.45;;;14.30;63.40;;;;;;4994823;28;85159;-54
2023/04/06 06:13:23;;;;;;;70.85;51.30;;;14.30;63.50;;;;;;5000613;28;85840;-60
2023/04/06 06:15:50;;;;;;;70.65;51.40;;;14.40;63.40;;;;;;4993943;28;84101;-59
2023/04/06 06:18:16;;;;;;;73.78;51.15;;;14.40;63.40;;;;;;5002770;28;85081;-60
2023/04/06 06:20:41;;;;;;;71.25;51.00;;;14.30;63.60;;;;;;4996310;28;86416;-58
2023/04/06 06:23:07;;;;;;;75.78;51.42;;;14.30;63.40;;;;;;5003324;28;86129;-60
2023/04/06 06:25:33;;;;;;;69.88;51.08;;;14.30;63.40;;;;;;4998304;28;84813;-60
2023/04/06 06:27:59;;;;;;;72.68;51.05;;;14.30;63.30;;;;;;4997286;28;84600;-51
2023/04/06 06:30:25;;;;;;;71.88;50.97;;;14.30;63.20;;;;;;4995983;28;88026;-58
2023/04/06 06:32:52;;;;;;;69.72;51.22;;;14.30;63.30;;;;;;4991310;28;85109;-52
2023/04/06 06:35:17;;;;;;;71.75;51.58;;;14.40;63.20;;;;;;4964247;28;88670;-62
2023/04/06 06:37:43;;;;;;;73.63;51.70;;;14.50;64.70;;;;;;5000742;28;86044;-59
2023/04/06 06:40:10;;;;;;;71.13;50.80;;;14.70;64.60;;;;;;4995024;28;85055;-56
2023/04/06 06:42:36;;;;;;;72.53;51.15;;;14.70;64.00;;;;;;4998228;28;85200;-59
2023/04/06 06:45:02;;;;;;;72.80;51.50;;;14.70;63.50;;;;;;4993565;28;85338;-57
2023/04/06 06:47:28;;;;;;;74.93;51.15;;;14.80;63.30;;;;;;4997685;28;85414;-57
2023/04/06 06:49:55;;;;;;;73.53;50.97;;;14.80;62.90;;;;;;4996567;28;86050;-59
2023/04/06 06:52:21;;;;;;;73.72;51.58;;;14.80;63.20;;;;;;4992919;28;85945;-61
2023/04/06 06:54:47;;;;;;;72.97;51.50;;;14.90;63.30;;;;;;4993421;28;84997;-59
2023/04/06 06:57:12;;;;;;;76.93;51.58;;;14.90;63.40;;;;;;4996755;28;85756;-57
2023/04/06 06:59:38;;;;;;;71.57;51.25;;;14.80;63.30;;;;;;4998333;28;85952;-61
2023/04/06 07:02:04;;;;;;;72.20;51.30;;;14.80;63.10;;;;;;4993888;28;86080;-58
2023/04/06 07:04:30;;;;;;;72.93;51.05;;;14.90;62.90;;;;;;4994396;28;86154;-60
2023/04/06 07:06:55;;;;;;;72.13;51.88;;;14.90;62.80;;;;;;4991397;28;84909;-61
2023/04/06 07:09:21;;;;;;;73.75;51.75;;;14.80;62.40;;;;;;4995996;28;85050;-47
2023/04/06 07:11:47;;;;;;;73.20;51.88;;;14.80;62.80;;;;;;4975352;28;89570;-53
2023/04/06 07:14:15;;;;;;;78.30;52.45;;;14.80;63.20;;;;;;4988938;28;85844;-52
2023/04/06 07:16:41;;;;;;;76.20;52.30;;;14.90;65.00;;;;;;4989326;28;84942;-58
2023/04/06 07:19:07;;;;;;;80.00;52.40;;;15.00;65.50;;;;;;4996931;28;84831;-53
2023/04/06 07:21:33;;;;;;;77.72;52.97;;;15.00;65.60;;;;;;4982991;28;85516;-57
2023/04/06 07:23:59;;;;;;;80.22;53.45;;;15.00;65.00;;;;;;4974416;28;87652;-52
2023/04/06 07:26:25;;;;;;;77.35;53.03;;;15.00;65.00;;;;;;4987686;28;87751;-50
2023/04/06 07:28:50;;;;;;;80.47;53.20;;;15.00;64.80;;;;;;4990171;28;85436;-53
2023/04/06 07:31:16;;;;;;;77.32;52.13;;;15.00;65.40;;;;;;4990452;28;85355;-62
2023/04/06 07:33:42;;;;;;;74.43;52.00;;;15.00;65.00;;;;;;4994404;28;88968;-58
2023/04/06 07:36:07;;;;;;;73.13;51.85;;;14.90;65.30;;;;;;4981358;28;84848;-62
2023/04/06 07:38:33;;;;;;;75.10;51.88;;;14.80;65.20;;;;;;4996246;28;88078;-54
2023/04/06 07:40:59;;;;;;;73.68;51.88;;;14.80;64.90;;;;;;4996925;28;86705;-55
2023/04/06 07:43:25;;;;;;;76.80;52.28;;;14.80;64.70;;;;;;4981480;28;85033;-58
2023/04/06 07:45:50;;;;;;;73.20;51.75;;;14.80;64.50;;;;;;4995268;28;85088;-61
2023/04/06 07:48:16;;;;;;;73.55;51.97;;;14.80;64.20;;;;;;4995678;28;85059;-62
2023/04/06 07:50:42;;;;;;;75.13;51.72;;;14.80;64.30;;;;;;4993013;28;85110;-57
2023/04/06 07:53:08;;;;;;;73.80;51.70;;;14.90;64.60;;;;;;4993835;28;89098;-52
2023/04/06 07:55:34;;;;;;;74.57;51.55;;;15.00;64.90;;;;;;4993253;28;84910;-55
2023/04/06 07:58:00;;;;;;;72.82;51.63;;;15.00;64.10;;;;;;4993419;28;85097;-55
2023/04/06 08:00:26;;;;;;;72.78;51.75;;;15.00;64.00;;;;;;4992019;28;85706;-49
2023/04/06 08:02:51;;;;;;;73.75;51.45;;;15.10;64.20;;;;;;4996027;28;90684;-55
2023/04/06 08:07:48;;;;;;;74.00;51.60;;;15.20;64.80;;;;;;4994765;28;86109;-74
2023/04/06 08:10:19;;;;;;;73.10;51.30;;;15.30;64.40;;;;;;4993049;28;87069;-72
2023/04/06 08:12:45;;;;;;;74.20;51.50;;;15.30;64.30;;;;;;4993950;28;87433;-74
2023/04/06 08:15:14;;;;;;;73.63;50.88;;;15.30;64.30;;;;;;4986249;28;89251;-73
2023/04/06 08:17:40;;;;;;;73.63;51.55;;;15.30;64.00;;;;;;4993682;28;87429;-75
2023/04/06 08:20:06;;;;;;;73.22;51.33;;;15.30;63.70;;;;;;4976167;28;86256;-73
2023/04/06 08:22:32;;;;;;;72.82;51.08;;;15.30;64.00;;;;;;5000986;28;87027;-72
2023/04/06 08:24:58;;;;;;;73.65;51.15;;;15.50;63.60;;;;;;4994591;28;86234;-76
2023/04/06 08:27:23;;;;;;;73.45;51.47;;;15.50;63.40;;;;;;4994316;28;86410;-75
2023/04/06 08:29:50;;;;;;;72.97;51.15;;;15.60;63.10;;;;;;4993522;28;85121;-76
2023/04/06 08:32:16;;;;;;;71.78;50.88;;;15.50;62.50;;;;;;4991292;28;88514;-73
2023/04/06 08:34:41;;;;;;;73.70;51.78;;;15.40;63.20;;;;;;4992109;28;89063;-71
2023/04/06 08:37:07;;;;;;;73.43;51.08;;;15.40;63.40;;;;;;4995172;28;85670;-75
2023/04/06 08:39:33;;;;;;;72.65;50.90;;;15.50;63.60;;;;;;4996674;28;85273;-74
2023/04/06 08:42:02;;;;;;;73.00;50.90;;;15.50;63.60;;;;;;4994332;28;85413;-75
2023/04/06 08:44:29;;;;;;;71.75;51.42;;;15.60;63.50;;;;;;4989823;28;86462;-72
2023/04/06 08:46:55;;;;;;;72.43;51.38;;;15.60;63.50;;;;;;4991750;28;85832;-72
2023/04/06 08:49:21;;;;;;;71.97;50.75;;;15.50;63.40;;;;;;4982138;28;86396;-73
2023/04/06 08:51:47;;;;;;;72.93;51.15;;;15.50;63.20;;;;;;4987368;28;84986;-74
2023/04/06 08:54:13;;;;;;;71.88;51.03;;;15.50;63.10;;;;;;4993106;28;85900;-76
2023/04/06 08:56:39;;;;;;;70.80;50.67;;;15.50;63.40;;;;;;4990656;28;85905;-73
2023/04/06 08:59:06;;;;;;;72.60;51.33;;;15.50;63.30;;;;;;4989607;28;87023;-72
2023/04/06 09:01:36;;;;;;;71.43;50.70;;;15.60;63.50;;;;;;4990548;28;85472;-76
2023/04/06 09:04:08;;;;;;;74.53;51.20;;;15.60;63.50;;;;;;4978486;28;91179;-78
2023/04/06 09:06:36;;;;;;;74.00;51.33;;;15.60;64.00;;;;;;4993553;28;85297;-75
2023/04/06 09:12:39;;;;;;;75.32;51.15;;;15.40;63.70;;;;;;4985219;28;86544;-76
2023/04/06 09:17:44;;;;;;;72.00;50.75;;;15.40;63.40;;;;;;3551820;22;91190;-72
2023/04/06 09:20:11;;;;;;;73.65;51.30;;;15.50;63.30;;;;;;4975061;28;88397;-73
2023/04/06 09:22:38;;;;;;;75.13;50.90;;;15.50;63.10;;;;;;4977508;28;86386;-72
2023/04/06 09:25:05;;;;;;;73.88;51.42;;;15.60;63.30;;;;;;4981341;28;85712;-75
2023/04/06 09:27:33;;;;;;;79.65;51.28;;;15.60;63.10;;;;;;4956315;28;85409;-73
2023/04/06 09:30:07;;;;;;;76.53;51.03;;;15.70;63.10;;;;;;4979290;28;87189;-71
2023/04/06 09:32:33;;;;;;;72.32;50.30;;;15.60;63.00;;;;;;4966799;28;85201;-71
2023/04/06 09:35:08;;;;;;;75.50;50.88;;;15.70;62.80;;;;;;4983093;28;89537;-76
2023/04/06 09:37:35;;;;;;;74.55;51.28;;;15.70;63.00;;;;;;4978412;28;89993;-74
2023/04/06 09:40:05;;;;;;;74.03;51.10;;;15.80;62.70;;;;;;4978808;28;86301;-71
2023/04/06 09:42:31;;;;;;;71.67;51.17;;;15.90;62.40;;;;;;4972344;28;86623;-71
2023/04/06 09:44:57;;;;;;;72.47;50.75;;;15.90;62.10;;;;;;4986611;28;85526;-72
2023/04/06 09:47:23;;;;;;;72.97;51.20;;;15.90;61.70;;;;;;4982491;28;86141;-73
2023/04/06 09:49:50;;;;;;;72.80;50.95;;;16.00;62.00;;;;;;4983320;28;85889;-73
2023/04/06 09:52:17;;;;;;;74.30;51.03;;;16.00;61.80;;;;;;4994093;28;85233;-73
2023/04/06 09:54:45;;;;;;;73.45;51.30;;;16.00;61.60;;;;;;4981218;28;88296;-76
2023/04/06 09:57:25;;;;;;;72.40;51.10;;;16.00;61.70;;;;;;4993404;28;87540;-74
2023/04/06 10:00:08;;;;;;;72.32;50.92;;;16.00;61.30;;;;;;4990504;28;85433;-71
2023/04/06 10:02:46;;;;;;;73.72;51.10;;;16.00;61.10;;;;;;4957400;28;86948;-70
2023/04/06 10:05:35;;;;;;;75.40;51.28;;;16.10;61.30;;;;;;4970659;28;86936;-74
2023/04/06 10:08:07;;;;;;;72.97;50.97;;;16.10;61.40;;;;;;4985772;28;86402;-74
2023/04/06 10:10:33;;;;;;;73.22;50.80;;;16.00;61.50;;;;;;4977008;28;87208;-72
2023/04/06 10:12:59;;;;;;;73.65;50.88;;;16.00;61.40;;;;;;4987442;28;86706;-72
2023/04/06 10:15:27;;;;;;;75.47;51.47;;;16.00;61.70;;;;;;4989952;28;85575;-74
2023/04/06 10:17:53;;;;;;;74.00;50.97;;;15.90;61.80;;;;;;5001302;28;85898;-70
2023/04/06 10:20:30;;;;;;;73.97;50.72;;;15.80;62.20;;;;;;4994176;28;85750;-73
2023/04/06 10:23:31;;;;;;;72.70;50.97;;;15.70;62.70;;;;;;4996870;28;85318;-70
2023/04/06 10:25:58;;;;;;;71.88;50.67;;;15.70;62.70;;;;;;4998939;28;86140;-72
2023/04/06 10:28:25;;;;;;;72.68;50.90;;;15.70;62.10;;;;;;4998080;28;85188;-71
2023/04/06 10:31:01;;;;;;;72.05;50.70;;;15.60;62.70;;;;;;4995497;28;85294;-70
2023/04/06 10:33:27;;;;;;;72.13;50.45;;;15.60;62.80;;;;;;5000388;28;85638;-72
2023/04/06 10:35:53;;;;;;;84.45;50.92;;;15.50;63.10;;;;;;4996556;28;86215;-77
2023/04/06 10:38:24;;;;;;;74.72;51.17;;;15.50;64.00;;;;;;4993738;28;87336;-73
2023/04/06 10:40:49;;;;;;;75.25;50.80;;;15.60;65.20;;;;;;4992364;28;86721;-77
2023/04/06 10:43:22;;;;;;;73.30;51.03;;;15.60;65.40;;;;;;4979778;28;86337;-75
2023/04/06 10:46:00;;;;;;;72.63;51.03;;;15.50;65.20;;;;;;4990760;28;86005;-79
2023/04/06 10:48:40;;;;;;;73.32;51.05;;;15.40;65.00;;;;;;4978209;28;89205;-74
2023/04/06 10:51:13;;;;;;;74.05;50.65;;;15.50;64.40;;;;;;4997993;28;86069;-78
2023/04/06 10:53:44;;;;;;;71.82;50.85;;;15.50;64.00;;;;;;4995317;28;85278;-76
2023/04/06 10:56:11;;;;;;;72.38;51.03;;;15.50;63.90;;;;;;4977937;28;87351;-77
2023/04/06 10:58:37;;;;;;;71.80;50.78;;;15.50;63.60;;;;;;4995100;28;86400;-76
2023/04/06 11:01:03;;;;;;;72.05;50.67;;;15.50;63.40;;;;;;4993110;28;85693;-77
2023/04/06 11:03:29;;;;;;;72.47;50.75;;;15.50;63.50;;;;;;4992208;28;85338;-76
2023/04/06 11:05:55;;;;;;;71.25;50.92;;;15.50;63.60;;;;;;5002442;28;84977;-76
2023/04/06 11:08:32;;;;;;;71.00;50.67;;;15.40;63.70;;;;;;4993514;28;86071;-75
2023/04/06 11:11:15;;;;;;;74.90;51.00;;;15.50;63.50;;;;;;5001755;28;85236;-76
2023/04/06 11:13:43;;;;;;;72.60;51.13;;;15.40;63.50;;;;;;4994798;28;85567;-76
2023/04/06 11:16:13;;;;;;;75.10;50.95;;;15.40;63.50;;;;;;4993048;28;85259;-74
2023/04/06 11:19:02;;;;;;;71.63;50.92;;;15.60;63.30;;;;;;4999978;28;85821;-77
2023/04/06 11:21:35;;;;;;;77.10;50.85;;;16.20;61.90;;;;;;4980501;28;85006;-77
2023/04/06 11:24:19;;;;;;;76.93;51.05;;;16.90;60.40;;;;;;4997976;28;85527;-76
2023/04/06 11:26:48;;;;;;;73.32;50.95;;;17.30;59.80;;;;;;4995029;28;84949;-76
2023/04/06 11:29:16;;;;;;;75.03;52.13;;;17.40;59.30;;;;;;5012950;22;88928;-55
2023/04/06 11:31:50;;;;;;;76.03;52.03;;;17.40;59.50;;;;;;4976242;28;85255;-50
2023/04/06 11:34:21;;;;;;;77.95;52.00;;;17.50;60.00;;;;;;5002512;28;85175;-50
2023/04/06 11:36:49;;;;;;;78.18;51.85;;;17.50;60.40;;;;;;4990929;28;85761;-42
2023/04/06 11:39:20;;;;;;;74.63;51.60;;;17.50;60.90;;;;;;4998738;28;85503;-49
2023/04/06 11:41:54;;;;;;;74.75;51.40;;;17.50;61.50;;;;;;5001180;28;85340;-49
2023/04/06 11:44:29;;;;;;;73.55;51.67;;;17.50;61.90;;;;;;4999175;28;85964;-44
2023/04/06 11:46:57;;;;;;;73.70;51.17;;;17.60;61.80;;;;;;5000945;28;84904;-48
2023/04/06 11:49:28;;;;;;;75.35;51.70;;;17.60;62.10;;;;;;5003633;28;85752;-45
2023/04/06 11:51:54;;;;;;;73.63;51.17;;;17.50;62.80;;;;;;5003967;28;86182;-40
2023/04/06 11:54:39;;;;;;;73.28;51.45;;;17.40;63.00;;;;;;4981363;28;85354;-48
2023/04/06 11:57:05;;;;;;;74.22;51.00;;;17.50;63.20;;;;;;5002143;28;84967;-45
2023/04/06 11:59:31;;;;;;;72.82;50.92;;;17.50;63.40;;;;;;5001728;28;85842;-51
2023/04/06 12:01:57;;;;;;;73.32;51.30;;;17.50;63.50;;;;;;5000175;28;86008;-56
2023/04/06 12:04:23;;;;;;;73.40;50.83;;;17.40;63.60;;;;;;4999735;28;85217;-47
2023/04/06 12:06:49;;;;;;;73.35;51.05;;;17.50;64.10;;;;;;5006028;28;85921;-50
2023/04/06 12:09:20;;;;;;;74.53;51.40;;;17.40;63.90;;;;;;5001448;28;85773;-48
2023/04/06 12:11:46;;;;;;;72.88;50.80;;;17.40;64.20;;;;;;5000716;28;85664;-44
2023/04/06 12:14:12;;;;;;;77.40;51.03;;;17.50;64.50;;;;;;5003423;28;85381;-49
2023/04/06 12:16:38;;;;;;;75.25;51.50;;;17.50;64.50;;;;;;4998611;28;86221;-46
2023/04/06 12:19:04;;;;;;;76.13;51.13;;;17.50;64.50;;;;;;5003665;28;85173;-47
2023/04/06 12:21:40;;;;;;;73.25;51.28;;;17.60;64.80;;;;;;5001346;28;85239;-42
2023/04/06 12:24:06;;;;;;;72.93;51.05;;;17.60;64.60;;;;;;5001109;28;85004;-46
2023/04/06 12:26:32;;;;;;;74.85;51.45;;;17.40;64.10;;;;;;5000224;28;85131;-40
2023/04/06 12:29:06;;;;;;;75.43;51.30;;;17.40;64.10;;;;;;4981073;28;85832;-42
2023/04/06 12:31:34;;;;;;;73.85;51.35;;;17.40;64.30;;;;;;4983466;28;84913;-45
2023/04/06 12:34:01;;;;;;;75.18;51.55;;;17.40;64.20;;;;;;4983266;28;85421;-43
2023/04/06 12:36:27;;;;;;;74.80;51.60;;;17.50;64.50;;;;;;4983761;28;85059;-41
2023/04/06 12:38:53;;;;;;;73.78;51.30;;;17.50;64.60;;;;;;4979173;28;85059;-42
2023/04/06 12:41:19;;;;;;;73.90;51.13;;;17.60;64.60;;;;;;4982347;28;85662;-47
2023/04/06 12:43:45;;;;;;;75.55;51.45;;;17.60;64.70;;;;;;4981197;28;85004;-51
2023/04/06 12:46:11;;;;;;;73.43;51.20;;;17.60;64.90;;;;;;4981619;28;85257;-47
2023/04/06 12:48:37;;;;;;;74.15;51.45;;;17.60;65.00;;;;;;4975226;28;85736;-45
2023/04/06 12:51:05;;;;;;;73.60;51.25;;;17.60;64.70;;;;;;4980827;28;85498;-46
2023/04/06 12:53:31;;;;;;;74.05;51.35;;;17.60;64.70;;;;;;4985688;28;86232;-41
2023/04/06 12:55:58;;;;;;;74.18;51.45;;;17.60;64.70;;;;;;4983486;28;84962;-56
2023/04/06 12:58:26;;;;;;;74.65;51.63;;;17.70;64.80;;;;;;4982097;28;86440;-51
2023/04/06 13:00:52;;;;;;;74.88;51.58;;;17.70;65.00;;;;;;4972948;28;85794;-44
2023/04/06 13:03:19;;;;;;;75.05;51.65;;;17.80;65.00;;;;;;4974201;28;85533;-51
2023/04/06 13:05:45;;;;;;;75.07;51.95;;;17.90;65.00;;;;;;4982441;28;86585;-52